Time;durP1;ratioP1;P1;durP2;ratioP2;P2;SDS_P1;SDS_P2;PMS_P1;PMS_P2;Temp;Humidity;BMP_temperature;BMP_pressure;BME280_temperature;BME280_humidity;BME280_pressure;Samples;Min_cycle;Max_cycle;Signal;HPM_P1;HPM_P2
2022/11/08 00:17:09;;;;;;;2.57;1.27;;;15.60;76.40;;;;;;10469935;28;20025;-53
2022/11/08 00:22:11;;;;;;;2.50;1.20;;;15.60;76.40;;;;;;10468294;28;20048;-53
2022/11/08 00:27:16;;;;;;;3.50;0.93;;;15.60;76.40;;;;;;10445689;28;20052;-52
2022/11/08 00:32:23;;;;;;;2.85;1.10;;;15.60;76.40;;;;;;10447040;28;20041;-53
2022/11/08 00:37:24;;;;;;;4.35;1.40;;;15.60;76.40;;;;;;10457447;28;20031;-54
2022/11/08 00:42:24;;;;;;;2.20;0.95;;;15.60;76.40;;;;;;10457480;28;20581;-53
2022/11/08 00:47:25;;;;;;;2.25;0.90;;;15.60;76.30;;;;;;10460145;28;20100;-52
2022/11/08 00:52:26;;;;;;;1.67;0.80;;;15.60;76.40;;;;;;10446579;28;20052;-53
2022/11/08 00:57:27;;;;;;;3.40;1.52;;;15.60;76.40;;;;;;10459952;28;20103;-53
2022/11/08 01:02:27;;;;;;;2.70;1.05;;;15.60;76.40;;;;;;10446362;28;20024;-53
2022/11/08 01:07:28;;;;;;;3.35;0.95;;;15.50;76.30;;;;;;10446260;28;20080;-51
2022/11/08 01:12:29;;;;;;;1.70;0.90;;;15.50;76.30;;;;;;10479999;28;20170;-53
2022/11/08 01:17:29;;;;;;;2.08;1.10;;;15.50;76.30;;;;;;10462359;28;20052;-53
2022/11/08 01:22:30;;;;;;;2.03;0.95;;;15.50;76.30;;;;;;10450150;28;20138;-52
2022/11/08 01:27:31;;;;;;;2.47;1.48;;;15.50;76.30;;;;;;10472305;28;20052;-52
2022/11/08 01:32:32;;;;;;;1.73;0.80;;;15.60;76.30;;;;;;10494617;28;20154;-52
2022/11/08 01:37:33;;;;;;;1.83;0.65;;;15.60;76.30;;;;;;10467790;28;20025;-53
2022/11/08 01:42:33;;;;;;;1.50;0.90;;;15.60;76.30;;;;;;10458171;28;20447;-52
2022/11/08 01:47:34;;;;;;;1.83;0.88;;;15.50;76.20;;;;;;10466323;28;20049;-52
2022/11/08 01:52:46;;;;;;;1.85;0.98;;;15.60;80.60;;;;;;10452944;28;20028;-52
2022/11/08 01:57:56;;;;;;;2.20;0.95;;;15.70;79.80;;;;;;10452867;28;20025;-53
2022/11/08 02:03:00;;;;;;;1.30;0.90;;;15.70;79.30;;;;;;10461350;28;20028;-54
2022/11/08 02:08:24;;;;;;;2.20;1.08;;;15.70;79.10;;;;;;10452283;28;20084;-52
2022/11/08 02:13:28;;;;;;;2.15;0.90;;;15.70;78.90;;;;;;10467422;28;20100;-54
2022/11/08 02:18:31;;;;;;;1.27;0.82;;;15.70;78.80;;;;;;10451002;28;20029;-53
2022/11/08 02:23:43;;;;;;;2.90;0.90;;;15.70;78.70;;;;;;10477373;28;20024;-54
2022/11/08 02:28:47;;;;;;;2.05;0.80;;;15.60;78.50;;;;;;10453512;28;20045;-54
2022/11/08 02:33:48;;;;;;;1.33;0.90;;;15.60;78.50;;;;;;10451499;28;20021;-54
2022/11/08 02:38:56;;;;;;;2.28;1.05;;;15.60;78.50;;;;;;10488191;28;20024;-55
2022/11/08 02:43:57;;;;;;;1.75;0.98;;;15.60;78.30;;;;;;10448614;28;20133;-54
2022/11/08 02:48:57;;;;;;;2.38;1.10;;;15.60;78.20;;;;;;10449626;28;20033;-54
2022/11/08 02:53:58;;;;;;;1.73;0.70;;;15.60;78.20;;;;;;10450391;28;20084;-54
2022/11/08 02:58:59;;;;;;;3.30;1.00;;;15.60;78.00;;;;;;10450593;28;20045;-54
2022/11/08 03:03:59;;;;;;;1.30;1.10;;;15.60;78.10;;;;;;10478953;28;20116;-54
2022/11/08 03:09:00;;;;;;;1.00;0.68;;;15.60;78.10;;;;;;10474699;28;20029;-55
2022/11/08 03:14:01;;;;;;;1.45;0.80;;;15.60;78.00;;;;;;10491045;28;20035;-54
2022/11/08 03:19:02;;;;;;;2.22;0.73;;;15.50;77.80;;;;;;10451047;28;20115;-53
2022/11/08 03:24:04;;;;;;;1.33;0.60;;;15.60;77.90;;;;;;10466735;28;20074;-54
2022/11/08 03:29:05;;;;;;;2.00;0.73;;;15.50;77.70;;;;;;10449005;28;20116;-53
2022/11/08 03:34:05;;;;;;;1.23;0.77;;;15.50;77.70;;;;;;10448943;28;20097;-55
2022/11/08 03:39:06;;;;;;;1.30;0.73;;;15.50;77.70;;;;;;10449229;28;20129;-54
2022/11/08 03:44:07;;;;;;;2.55;0.85;;;15.50;77.70;;;;;;10466205;28;20044;-55
2022/11/08 03:49:08;;;;;;;1.55;0.63;;;15.50;77.60;;;;;;10504851;28;20066;-54
2022/11/08 03:54:09;;;;;;;1.48;0.93;;;15.50;77.60;;;;;;10489177;28;20081;-55
2022/11/08 03:59:11;;;;;;;1.67;0.80;;;15.50;77.50;;;;;;10471287;28;20029;-53
2022/11/08 04:04:12;;;;;;;1.73;0.50;;;15.50;77.50;;;;;;10488495;28;20048;-55
2022/11/08 04:09:12;;;;;;;0.90;0.70;;;15.50;77.50;;;;;;10448042;28;20072;-54
2022/11/08 04:24:51;;;;;;;1.95;0.77;;;15.50;77.40;;;;;;10447452;28;20025;-55
2022/11/08 04:29:51;;;;;;;1.77;0.68;;;15.50;77.30;;;;;;10446968;28;20057;-54
2022/11/08 04:34:52;;;;;;;1.60;1.10;;;15.50;77.30;;;;;;10452509;28;20095;-55
2022/11/08 04:39:53;;;;;;;1.17;0.60;;;15.50;77.20;;;;;;10465383;28;20453;-55
2022/11/08 04:44:53;;;;;;;0.95;0.60;;;15.50;77.20;;;;;;10463329;28;20100;-54
2022/11/08 04:49:54;;;;;;;1.52;0.80;;;15.50;77.20;;;;;;10446669;28;20140;-54
2022/11/08 04:54:55;;;;;;;1.45;0.70;;;15.50;77.20;;;;;;10446191;28;20017;-53
2022/11/08 04:59:55;;;;;;;0.82;0.60;;;15.50;77.20;;;;;;10448102;28;20045;-55
2022/11/08 05:04:56;;;;;;;3.28;0.70;;;15.50;77.10;;;;;;10461638;28;20072;-53
2022/11/08 05:09:57;;;;;;;3.28;0.77;;;15.50;77.40;;;;;;10469942;28;20043;-55
2022/11/08 05:14:57;;;;;;;1.27;0.70;;;15.60;77.30;;;;;;10466896;28;20048;-53
2022/11/08 05:25:17;;;;;;;2.43;0.80;;;15.60;77.30;;;;;;10469732;28;20078;-52
2022/11/08 05:30:18;;;;;;;1.77;0.80;;;15.50;77.20;;;;;;10469258;28;20550;-54
2022/11/08 05:35:20;;;;;;;1.17;0.70;;;15.50;77.30;;;;;;10481543;28;20059;-52
2022/11/08 05:40:21;;;;;;;1.08;0.70;;;15.50;77.30;;;;;;10480902;28;20029;-54
2022/11/08 05:45:21;;;;;;;1.10;0.50;;;15.50;77.40;;;;;;10454856;28;20123;-52
2022/11/08 05:50:23;;;;;;;1.40;0.60;;;15.40;77.20;;;;;;10494413;28;20097;-53
2022/11/08 05:55:25;;;;;;;1.45;0.52;;;15.50;77.30;;;;;;10488330;28;20070;-54
2022/11/08 06:00:26;;;;;;;1.75;0.90;;;15.40;77.20;;;;;;10493558;28;20652;-51
2022/11/08 06:05:26;;;;;;;1.60;0.80;;;15.40;77.10;;;;;;10460923;28;20059;-54
2022/11/08 06:10:27;;;;;;;1.10;0.60;;;15.40;77.10;;;;;;10459735;28;20119;-54
2022/11/08 06:15:28;;;;;;;3.47;0.90;;;15.40;76.70;;;;;;10457934;28;20052;-54
2022/11/08 06:20:28;;;;;;;3.65;1.10;;;15.50;78.00;;;;;;10456927;28;20104;-54
2022/11/08 06:25:29;;;;;;;3.67;1.10;;;15.60;77.30;;;;;;10451577;28;20037;-56
2022/11/08 06:30:30;;;;;;;5.50;0.98;;;15.60;77.20;;;;;;10486362;28;20143;-54
2022/11/08 06:35:30;;;;;;;7.43;1.67;;;15.70;77.30;;;;;;10466349;28;20116;-53
2022/11/08 06:40:32;;;;;;;8.75;1.20;;;15.80;78.10;;;;;;10477210;28;20068;-56
2022/11/08 06:45:32;;;;;;;4.20;1.60;;;15.70;77.60;;;;;;10451372;28;20036;-57
2022/11/08 06:50:34;;;;;;;9.77;1.52;;;15.70;77.30;;;;;;10449148;28;20021;-55
2022/11/08 06:55:35;;;;;;;10.35;2.15;;;15.70;77.30;;;;;;10450439;28;20096;-55
2022/11/08 07:00:35;;;;;;;31.58;3.78;;;15.70;77.00;;;;;;10466766;28;20126;-55
2022/11/08 07:05:36;;;;;;;32.53;4.32;;;15.70;77.10;;;;;;10479958;28;20076;-55
2022/11/08 07:10:39;;;;;;;16.35;2.63;;;15.60;77.20;;;;;;10468052;28;20035;-55
2022/11/08 07:15:40;;;;;;;22.02;3.33;;;15.60;77.30;;;;;;10460841;28;20843;-55
2022/11/08 07:20:42;;;;;;;20.50;3.65;;;15.60;77.50;;;;;;10464663;28;20059;-55
2022/11/08 07:25:43;;;;;;;8.50;1.42;;;15.60;77.20;;;;;;10468402;28;20051;-55
2022/11/08 07:30:45;;;;;;;9.05;1.52;;;15.50;77.80;;;;;;10448481;28;20029;-55
2022/11/08 07:35:46;;;;;;;8.90;1.80;;;15.50;76.60;;;;;;10448977;28;20598;-54
2022/11/08 07:40:47;;;;;;;5.32;1.65;;;15.50;76.60;;;;;;10448370;28;20025;-54
2022/11/08 07:45:57;;;;;;;13.32;1.58;;;15.50;76.60;;;;;;10460486;28;20025;-55
2022/11/08 07:50:58;;;;;;;5.63;1.92;;;15.50;76.70;;;;;;10448291;28;20036;-55
2022/11/08 07:55:59;;;;;;;3.72;1.20;;;15.40;76.70;;;;;;10470587;28;20021;-53
2022/11/08 08:01:04;;;;;;;6.65;1.80;;;15.50;76.60;;;;;;10492982;28;20032;-56
2022/11/08 08:06:05;;;;;;;7.72;2.70;;;15.50;76.90;;;;;;10471942;28;20036;-57
2022/11/08 08:11:06;;;;;;;7.18;1.83;;;15.50;76.70;;;;;;10463238;28;20040;-57
2022/11/08 08:16:07;;;;;;;9.70;1.60;;;15.60;76.80;;;;;;10455631;28;20033;-55
2022/11/08 08:21:08;;;;;;;16.83;2.35;;;15.60;76.40;;;;;;10450307;28;20519;-54
2022/11/08 08:26:08;;;;;;;12.93;2.53;;;15.60;76.50;;;;;;10455728;28;20112;-55
2022/11/08 08:31:09;;;;;;;18.45;2.78;;;15.50;76.20;;;;;;10448978;28;20429;-56
2022/11/08 08:36:10;;;;;;;24.20;3.22;;;15.50;76.20;;;;;;10446629;28;20102;-56
2022/11/08 08:41:11;;;;;;;6.47;2.35;;;15.50;76.30;;;;;;10452384;28;20115;-55
2022/11/08 08:46:11;;;;;;;8.02;1.98;;;15.50;76.30;;;;;;10487579;28;20039;-55
2022/11/08 08:51:12;;;;;;;10.50;1.98;;;15.60;76.90;;;;;;10465903;28;20071;-55
2022/11/08 08:56:12;;;;;;;8.25;2.00;;;15.60;76.10;;;;;;10461502;28;20083;-53
2022/11/08 09:01:15;;;;;;;6.70;1.77;;;15.60;76.00;;;;;;10464024;28;20108;-55
2022/11/08 09:06:15;;;;;;;7.90;1.35;;;15.50;76.00;;;;;;10462455;28;20049;-54
2022/11/08 09:11:16;;;;;;;7.97;1.67;;;15.60;76.10;;;;;;10462255;28;20033;-53
2022/11/08 09:16:17;;;;;;;9.10;2.17;;;15.50;75.90;;;;;;10487295;28;20511;-55
2022/11/08 09:21:17;;;;;;;6.80;2.08;;;15.50;76.00;;;;;;10472046;28;20029;-54
2022/11/08 09:26:18;;;;;;;2.85;1.42;;;15.50;75.90;;;;;;10445844;28;20031;-55
2022/11/08 09:31:19;;;;;;;3.28;1.65;;;15.50;76.10;;;;;;10473843;28;20041;-54
2022/11/08 09:36:19;;;;;;;3.03;1.30;;;15.50;76.00;;;;;;10451484;28;20032;-56
2022/11/08 09:41:49;;;;;;;4.03;1.30;;;15.50;76.00;;;;;;10442737;28;20545;-55
2022/11/08 09:46:55;;;;;;;6.20;1.83;;;15.50;75.80;;;;;;10455957;28;20029;-55
2022/11/08 09:51:58;;;;;;;3.22;1.30;;;15.50;75.80;;;;;;10447106;28;20044;-55
2022/11/08 09:57:04;;;;;;;4.40;1.42;;;15.50;75.80;;;;;;10479350;28;20040;-54
2022/11/08 10:02:22;;;;;;;5.38;1.20;;;15.50;75.80;;;;;;10458904;28;20067;-55
2022/11/08 10:07:42;;;;;;;2.78;1.30;;;15.40;75.70;;;;;;10451521;28;20037;-54
2022/11/08 10:13:23;;;;;;;4.27;1.13;;;15.50;75.60;;;;;;10490304;28;20380;-54
2022/11/08 10:18:47;;;;;;;5.80;1.67;;;15.50;75.60;;;;;;10461815;28;20036;-55
2022/11/08 10:24:01;;;;;;;2.53;1.30;;;15.50;75.60;;;;;;10458814;28;20049;-55
2022/11/08 10:29:18;;;;;;;4.60;0.88;;;15.50;75.50;;;;;;10456874;28;20044;-55
2022/11/08 10:34:25;;;;;;;3.88;1.30;;;15.50;75.50;;;;;;10451501;28;20070;-56
2022/11/08 10:39:28;;;;;;;2.28;0.77;;;15.50;75.30;;;;;;10465237;28;20037;-53
2022/11/08 10:44:29;;;;;;;4.72;1.27;;;15.50;75.30;;;;;;10454364;28;20021;-56
2022/11/08 10:49:40;;;;;;;3.25;1.20;;;15.50;75.20;;;;;;10450729;28;20033;-55
2022/11/08 10:54:56;;;;;;;4.13;1.00;;;15.50;75.30;;;;;;10464739;28;20027;-56
2022/11/08 11:00:17;;;;;;;3.08;1.40;;;15.60;75.40;;;;;;10476593;28;20383;-56
2022/11/08 11:05:17;;;;;;;4.30;1.23;;;15.60;75.40;;;;;;10458095;28;20560;-55
2022/11/08 11:10:33;;;;;;;9.57;2.65;;;15.60;75.50;;;;;;10464155;28;20037;-56
2022/11/08 11:15:45;;;;;;;8.88;4.85;;;15.60;76.00;;;;;;10482261;28;20108;-55
2022/11/08 11:21:08;;;;;;;10.93;5.20;;;15.50;77.00;;;;;;10480604;28;20082;-56
2022/11/08 11:26:33;;;;;;;9.38;2.83;;;15.60;78.50;;;;;;10464414;28;20082;-56
2022/11/08 11:31:40;;;;;;;6.68;2.47;;;15.50;77.00;;;;;;10448936;28;20029;-55
2022/11/08 11:36:55;;;;;;;7.38;3.00;;;15.60;76.60;;;;;;10449186;28;20032;-55
2022/11/08 11:42:37;;;;;;;8.20;2.75;;;15.50;76.30;;;;;;10450721;28;20076;-56
2022/11/08 11:47:47;;;;;;;4.60;2.03;;;15.50;75.80;;;;;;10427249;28;20108;-55
2022/11/08 11:52:48;;;;;;;5.25;2.55;;;15.50;75.90;;;;;;10468543;28;20048;-56
2022/11/08 11:58:06;;;;;;;7.03;3.05;;;15.50;75.80;;;;;;10487634;28;20016;-56
2022/11/08 12:03:20;;;;;;;5.30;2.67;;;15.50;75.70;;;;;;10484894;28;20017;-56
2022/11/08 12:09:19;;;;;;;3.60;1.77;;;15.50;75.70;;;;;;10457009;28;20526;-55
2022/11/08 12:14:23;;;;;;;3.97;2.10;;;15.50;75.50;;;;;;10480211;28;20020;-59
2022/11/08 12:20:04;;;;;;;3.88;1.48;;;15.50;75.50;;;;;;10468093;28;20031;-55
2022/11/08 12:25:18;;;;;;;;;;;15.60;75.50;;;;;;10459549;28;20028;-56
2022/11/08 12:30:32;;;;;;;5.22;2.10;;;15.60;75.50;;;;;;10483377;28;19938;-55
2022/11/08 12:36:03;;;;;;;2.78;1.80;;;15.50;75.40;;;;;;10461664;28;20017;-56
2022/11/08 12:41:36;;;;;;;4.53;1.63;;;15.60;75.50;;;;;;10445697;28;20072;-56
2022/11/08 12:47:07;;;;;;;3.08;1.77;;;15.60;75.40;;;;;;10443127;28;20033;-55
2022/11/08 12:52:27;;;;;;;3.28;1.98;;;15.50;75.40;;;;;;10459073;28;20072;-55
2022/11/08 12:57:29;;;;;;;3.20;1.73;;;15.50;75.40;;;;;;10446328;28;20387;-56
2022/11/08 13:02:37;;;;;;;3.22;1.63;;;15.50;75.40;;;;;;10444712;28;20082;-56
2022/11/08 13:07:54;;;;;;;3.47;1.73;;;15.50;75.40;;;;;;10464972;28;20044;-54
2022/11/08 13:13:04;;;;;;;2.78;1.45;;;15.50;75.40;;;;;;10457585;28;20065;-56
2022/11/08 13:18:05;;;;;;;5.38;1.63;;;15.50;75.30;;;;;;10466511;28;20025;-55
2022/11/08 13:23:31;;;;;;;7.03;1.60;;;15.60;75.90;;;;;;10462196;28;20471;-55
2022/11/08 13:28:41;;;;;;;11.40;2.00;;;15.60;75.70;;;;;;10453973;28;20029;-56
2022/11/08 13:34:32;;;;;;;13.02;2.30;;;15.70;75.90;;;;;;10478524;28;20499;-56
2022/11/08 13:40:11;;;;;;;10.98;2.53;;;15.60;76.10;;;;;;10465265;28;20071;-56
2022/11/08 13:45:30;;;;;;;6.88;2.35;;;15.70;76.30;;;;;;10452713;28;20033;-56
2022/11/08 13:50:32;;;;;;;4.55;1.50;;;15.80;76.20;;;;;;10453067;28;20029;-56
2022/11/08 13:55:42;;;;;;;7.88;1.73;;;15.90;76.00;;;;;;10452880;28;20484;-55
2022/11/08 14:00:45;;;;;;;;;;;16.00;75.50;;;;;;10473121;28;20110;-54
2022/11/08 14:05:48;;;;;;;14.00;2.28;;;16.10;75.20;;;;;;10447651;28;19920;-55
2022/11/08 14:11:28;;;;;;;8.13;2.42;;;16.20;75.50;;;;;;10452468;28;20059;-56
2022/11/08 14:16:40;;;;;;;10.13;3.00;;;16.30;75.70;;;;;;10450993;28;20136;-56
2022/11/08 14:21:48;;;;;;;13.88;2.85;;;16.30;76.00;;;;;;10456430;28;20472;-54
2022/11/08 14:26:49;;;;;;;12.45;3.28;;;16.30;76.00;;;;;;10457652;28;20052;-56
2022/11/08 14:32:12;;;;;;;19.00;3.63;;;16.40;76.20;;;;;;10465209;28;20036;-56
2022/11/08 14:37:33;;;;;;;17.10;4.65;;;16.40;76.50;;;;;;10493454;28;20025;-55
2022/11/08 14:42:34;;;;;;;18.77;4.25;;;16.40;76.60;;;;;;10459565;28;20021;-53
2022/11/08 14:47:36;;;;;;;23.45;4.68;;;16.40;76.70;;;;;;10449938;28;20029;-56
2022/11/08 14:52:36;;;;;;;24.33;4.47;;;16.50;76.70;;;;;;10454851;28;20472;-55
2022/11/08 14:57:38;;;;;;;31.48;5.03;;;16.50;77.20;;;;;;10450622;28;20113;-54
2022/11/08 15:03:06;;;;;;;27.80;5.05;;;16.50;77.20;;;;;;10463947;28;20013;-55
2022/11/08 15:08:27;;;;;;;37.90;6.70;;;16.60;77.40;;;;;;10467515;28;20380;-54
2022/11/08 15:13:36;;;;;;;23.67;4.63;;;16.50;77.30;;;;;;10450003;28;20111;-53
2022/11/08 15:18:40;;;;;;;19.53;4.23;;;16.50;77.10;;;;;;10449852;28;20135;-52
2022/11/08 15:23:46;;;;;;;14.02;3.42;;;16.60;76.60;;;;;;10468579;28;20271;-54
2022/11/08 15:29:01;;;;;;;21.60;4.88;;;16.50;77.80;;;;;;10457232;28;20013;-54
2022/11/08 15:34:03;;;;;;;22.55;4.20;;;16.50;77.70;;;;;;10455329;28;20128;-54
2022/11/08 15:39:05;;;;;;;17.27;4.50;;;16.50;77.30;;;;;;10454372;28;20036;-54
2022/11/08 15:44:13;;;;;;;19.13;4.18;;;16.50;77.80;;;;;;10466270;28;20095;-50
2022/11/08 15:49:19;;;;;;;14.38;3.63;;;16.60;77.40;;;;;;10466623;28;20036;-54
2022/11/08 15:54:22;;;;;;;15.57;3.95;;;16.60;77.10;;;;;;10448547;28;20088;-54
2022/11/08 15:59:28;;;;;;;13.55;5.78;;;16.50;77.10;;;;;;10448387;28;20025;-55
2022/11/08 16:04:29;;;;;;;12.73;4.03;;;16.40;78.20;;;;;;10477761;28;20063;-54
2022/11/08 16:09:29;;;;;;;12.93;4.55;;;16.30;79.20;;;;;;10487776;28;20036;-55
2022/11/08 16:14:30;;;;;;;13.18;4.45;;;16.30;79.50;;;;;;10488740;28;20048;-55
2022/11/08 16:19:31;;;;;;;14.48;3.70;;;16.30;80.20;;;;;;10486656;28;20120;-55
2022/11/08 16:24:32;;;;;;;15.13;5.07;;;16.30;80.00;;;;;;10447622;28;20064;-54
2022/11/08 16:29:33;;;;;;;8.15;3.58;;;16.30;79.50;;;;;;10446684;28;20021;-53
2022/11/08 16:34:34;;;;;;;16.58;3.78;;;16.30;78.50;;;;;;10448078;28;20020;-53
2022/11/08 16:39:35;;;;;;;14.10;3.85;;;16.30;78.50;;;;;;10464558;28;20055;-54
2022/11/08 16:44:36;;;;;;;15.70;4.00;;;16.40;79.20;;;;;;10473514;28;20063;-55
2022/11/08 16:49:37;;;;;;;16.33;3.85;;;16.50;77.60;;;;;;10463352;28;20515;-55
2022/11/08 16:54:37;;;;;;;9.38;2.65;;;16.40;77.10;;;;;;10456836;28;20012;-54
2022/11/08 16:59:38;;;;;;;9.45;2.83;;;16.40;76.00;;;;;;10475157;28;20024;-55
2022/11/08 17:04:39;;;;;;;8.65;3.15;;;16.30;76.50;;;;;;10457055;28;20048;-59
2022/11/08 17:09:39;;;;;;;8.38;3.22;;;16.30;76.10;;;;;;10467578;28;20143;-55
2022/11/08 17:14:40;;;;;;;12.55;3.45;;;16.30;76.40;;;;;;10477582;28;20178;-56
2022/11/08 17:19:41;;;;;;;9.20;2.60;;;16.30;77.20;;;;;;10464062;28;20021;-54
2022/11/08 17:24:42;;;;;;;11.45;2.78;;;16.50;77.70;;;;;;10457733;28;20033;-54
2022/11/08 17:29:42;;;;;;;10.88;2.78;;;16.50;77.60;;;;;;10487393;28;20028;-55
2022/11/08 17:34:43;;;;;;;14.50;2.53;;;16.50;77.80;;;;;;10457720;28;20064;-50
2022/11/08 17:39:44;;;;;;;11.93;2.70;;;16.60;77.50;;;;;;10453544;28;20610;-52
2022/11/08 17:44:45;;;;;;;9.07;2.08;;;16.60;77.60;;;;;;10452484;28;20040;-54
2022/11/08 17:49:45;;;;;;;16.48;2.47;;;16.60;76.80;;;;;;10460874;28;20037;-55
2022/11/08 17:54:46;;;;;;;15.48;2.58;;;16.50;77.40;;;;;;10453253;28;20503;-53
2022/11/08 17:59:47;;;;;;;14.80;2.70;;;16.50;77.50;;;;;;10453234;28;20032;-56
2022/11/08 18:04:48;;;;;;;18.20;2.75;;;16.50;77.40;;;;;;10464385;28;20475;-56
2022/11/08 18:09:48;;;;;;;9.38;2.45;;;16.50;77.20;;;;;;10485219;28;20039;-56
2022/11/08 18:14:49;;;;;;;10.60;1.92;;;16.40;77.30;;;;;;10490497;28;20586;-56
2022/11/08 18:19:50;;;;;;;10.10;2.53;;;16.30;77.50;;;;;;10458963;28;20418;-56
2022/11/08 18:24:50;;;;;;;11.75;1.95;;;16.30;77.50;;;;;;10452529;28;20024;-58
2022/11/08 18:29:51;;;;;;;10.70;2.45;;;16.20;77.60;;;;;;10458836;28;20116;-55
2022/11/08 18:34:52;;;;;;;7.18;2.67;;;16.20;77.70;;;;;;10470050;28;21024;-56
2022/11/08 18:39:52;;;;;;;12.70;2.38;;;16.20;77.60;;;;;;10483218;28;20105;-55
2022/11/08 18:44:53;;;;;;;7.85;2.42;;;16.10;77.50;;;;;;10485225;28;20051;-56
2022/11/08 18:49:58;;;;;;;14.45;3.25;;;16.20;77.40;;;;;;10492326;28;20083;-55
2022/11/08 18:54:58;;;;;;;11.30;2.70;;;16.10;78.00;;;;;;10490358;28;20165;-57
2022/11/08 18:59:59;;;;;;;15.90;2.28;;;16.10;78.20;;;;;;10490539;28;20048;-55
2022/11/08 19:05:00;;;;;;;8.85;2.03;;;16.10;77.70;;;;;;10491614;28;20115;-56
2022/11/08 19:10:00;;;;;;;11.07;2.60;;;16.20;77.40;;;;;;10489819;28;20067;-57
2022/11/08 19:15:01;;;;;;;11.00;2.50;;;16.20;77.70;;;;;;10457613;28;20052;-57
2022/11/08 19:20:03;;;;;;;9.60;2.70;;;16.10;77.30;;;;;;10467476;28;20059;-56
2022/11/08 19:25:04;;;;;;;11.07;2.22;;;16.10;77.40;;;;;;10450482;28;20060;-55
2022/11/08 19:30:05;;;;;;;12.70;2.63;;;16.10;77.70;;;;;;10486509;28;20036;-55
2022/11/08 19:35:06;;;;;;;10.27;2.60;;;16.20;77.40;;;;;;10474424;28;20055;-53
2022/11/08 19:40:08;;;;;;;5.70;2.20;;;16.10;77.80;;;;;;10465562;28;20699;-55
2022/11/08 19:45:09;;;;;;;10.88;2.45;;;16.10;78.00;;;;;;10469963;28;20479;-55
2022/11/08 19:50:10;;;;;;;13.55;3.35;;;16.10;77.90;;;;;;10482374;28;20048;-55
2022/11/08 19:55:10;;;;;;;8.48;2.35;;;16.10;77.80;;;;;;10463214;28;20049;-54
2022/11/08 20:00:12;;;;;;;5.80;2.10;;;16.10;78.00;;;;;;10459103;28;20074;-55
2022/11/08 20:05:13;;;;;;;9.10;2.63;;;16.10;78.10;;;;;;10458751;28;20045;-54
2022/11/08 20:10:14;;;;;;;8.80;1.90;;;16.10;78.10;;;;;;10477718;28;20049;-55
2022/11/08 20:15:15;;;;;;;11.40;3.17;;;16.10;78.10;;;;;;10467497;28;20051;-55
2022/11/08 20:20:16;;;;;;;6.65;1.80;;;16.10;78.00;;;;;;10478521;28;20116;-55
2022/11/08 20:25:16;;;;;;;10.25;2.20;;;16.10;78.00;;;;;;10464404;28;20029;-55
2022/11/08 20:30:17;;;;;;;5.45;2.25;;;16.10;77.90;;;;;;10458204;28;20031;-59
2022/11/08 20:35:18;;;;;;;6.97;1.65;;;16.10;77.80;;;;;;10448279;28;20080;-55
2022/11/08 20:40:18;;;;;;;5.10;2.22;;;16.00;77.70;;;;;;10453665;28;20045;-55
2022/11/08 20:45:19;;;;;;;4.35;1.92;;;16.00;78.30;;;;;;10445523;28;20052;-55
2022/11/08 20:50:20;;;;;;;6.00;1.70;;;16.00;77.70;;;;;;10444169;28;20144;-55
2022/11/08 20:55:23;;;;;;;3.97;2.33;;;16.00;77.70;;;;;;10443088;28;20120;-55
2022/11/08 21:00:23;;;;;;;4.63;1.73;;;16.00;77.70;;;;;;10444702;28;20079;-55
2022/11/08 21:05:24;;;;;;;9.93;2.17;;;15.90;77.60;;;;;;10446243;28;20942;-55
2022/11/08 21:10:24;;;;;;;4.88;1.55;;;15.90;77.50;;;;;;10481855;28;20517;-55
2022/11/08 21:15:26;;;;;;;4.32;1.75;;;15.90;77.50;;;;;;10474572;28;20017;-58
2022/11/08 21:20:27;;;;;;;3.45;1.48;;;15.90;77.50;;;;;;10481166;28;20052;-55
2022/11/08 21:25:27;;;;;;;3.42;1.48;;;15.90;77.40;;;;;;10446055;28;20052;-56
2022/11/08 21:30:28;;;;;;;5.60;1.50;;;15.90;77.30;;;;;;10444852;28;20068;-56
2022/11/08 21:35:29;;;;;;;3.40;1.10;;;15.90;77.30;;;;;;10445853;28;20415;-54
2022/11/08 21:40:31;;;;;;;4.35;2.20;;;15.90;77.20;;;;;;10445634;28;20031;-54
2022/11/08 21:45:32;;;;;;;4.43;1.20;;;15.90;77.30;;;;;;10445538;28;20037;-55
2022/11/08 21:50:33;;;;;;;3.58;2.00;;;15.90;77.20;;;;;;10453280;28;20063;-56
2022/11/08 21:55:34;;;;;;;6.43;1.48;;;15.80;77.10;;;;;;10453162;28;20405;-55
2022/11/08 22:00:35;;;;;;;2.53;1.23;;;15.80;77.10;;;;;;10481956;28;20028;-56
2022/11/08 22:05:35;;;;;;;2.00;1.05;;;15.80;77.10;;;;;;10493700;28;20119;-55
2022/11/08 22:10:36;;;;;;;3.85;1.25;;;15.80;77.10;;;;;;10456926;28;20120;-56
2022/11/08 22:15:37;;;;;;;3.15;1.50;;;15.80;77.10;;;;;;10482308;28;20112;-56
2022/11/08 22:21:36;;;;;;;2.60;1.48;;;15.80;77.10;;;;;;10455861;28;20113;-54
2022/11/08 22:25:58;;;;;;;3.45;1.30;;;15.80;77.10;;;;;;10450756;28;20175;-56
2022/11/08 22:30:59;;;;;;;1.98;1.08;;;15.80;77.70;;;;;;10491372;28;20081;-56
2022/11/08 22:35:59;;;;;;;1.65;0.95;;;15.80;77.10;;;;;;10452516;28;20096;-56
2022/11/08 22:41:00;;;;;;;3.22;1.55;;;15.80;77.10;;;;;;10451275;28;20116;-56
2022/11/08 22:46:01;;;;;;;3.75;1.25;;;15.80;77.00;;;;;;10449594;28;20456;-55
2022/11/08 22:51:02;;;;;;;2.03;1.35;;;15.80;77.10;;;;;;10449611;28;20610;-55
2022/11/08 22:56:04;;;;;;;2.85;0.93;;;15.70;77.00;;;;;;10449086;28;20465;-55
2022/11/08 23:01:06;;;;;;;2.80;1.25;;;15.80;77.00;;;;;;10449666;28;20052;-54
2022/11/08 23:06:08;;;;;;;2.80;1.25;;;15.80;77.00;;;;;;10489187;28;20487;-56
2022/11/08 23:16:31;;;;;;;2.43;1.33;;;15.70;76.90;;;;;;10451023;28;20025;-55
2022/11/08 23:32:11;;;;;;;2.20;0.90;;;15.70;76.90;;;;;;10449312;28;20037;-55
2022/11/08 23:37:11;;;;;;;3.28;1.00;;;15.70;76.90;;;;;;10449567;28;20178;-55
2022/11/08 23:47:31;;;;;;;2.53;1.00;;;15.70;76.90;;;;;;10457982;28;20029;-56
2022/11/08 23:52:32;;;;;;;1.60;0.90;;;15.70;76.80;;;;;;10484431;28;20135;-55
2022/11/08 23:57:33;;;;;;;5.00;0.95;;;15.70;76.90;;;;;;10489501;28;20029;-55
